Poland, NY (13431)

1:21 PM EST on December 07, 2016 (GMT -0500)
The Hurricane | | Change Station

Elev 1424 ft 43.26 °N, 74.98 °W | Updated 17 minutes ago

Mostly Cloudy
Mostly Cloudy
33.7 °F
Feels Like 25 °F
N
11.0
Wind Variable Wind from West
Gusts 21.0 mph

Today
High -- | Low -- °F
--% Chance of Precip.
Yesterday
High -- | Low -- °F
Precip. -- in
Pressure 29.96 in
Visibility 10.0 miles
Clouds Mostly Cloudy 3200 ft
Mostly Cloudy 3900 ft
Windchill 25 °F
Dew Point 33 °F
Humidity 98%
Rainfall Not available.
Snow Depth Not available.
7:19 AM 4:24 PM
First Quarter, 54% visible
METAR KRME 071753Z 29013KT 10SM BKN032 BKN039 04/00 A2994 RMK AO2 SLP143 60001 T00390000 10044 20006 58002
Pressure 29.96 in
Visibility 10.0 miles
Clouds Mostly Cloudy 3200 ft
Mostly Cloudy 3900 ft
Windchill 25 °F
Dew Point 33 °F
Humidity 98%
Rainfall Not available.
Snow Depth Not available.
7:19 AM 4:24 PM
First Quarter, 54% visible
METAR KRME 071753Z 29013KT 10SM BKN032 BKN039 04/00 A2994 RMK AO2 SLP143 60001 T00390000 10044 20006 58002

10-Day Weather Forecast

Almanac

Astronomy

Dec. 07, 2016 Rise Set
Actual Time
Civil Twilight
Nautical Twilight
Astronomical Twilight
Moon
Length of Visible Light
Length of Day
Tomorrow will be .
, % of the Moon is Illuminated

Today's Extremes

State Highs State Lows

Community

WunderPhotos

Upload Photos

1,956,156 photos uploaded!

WunderBlog® & News

Nearby

Air Quality

  Air Quality AQ Index Pollutant
Not available.

Snow Depth

Station Depth Elevation

Earthquake Activity

City Distance Mag. Time & Date
Minimum magnitude displayed is 2.5.

Coastal Water Temperatures

Place Temperature

Stations

Nearby Weather Stations

Station Location Temp. Windchill Dew Point Humidity Wind Precip. Elev Updated Type
                   

Watches & Warnings

There are currently no watches in effect.